Terminal Aerodrome Forecast
Issued by NWS Sterling, VA

Current Version | Previous Version | Graphics & Text | Print | Product List | Glossary On
Versions: 1 2 3 4 5 6 7 8 9 10 11 12 13 14 15 16 17 18 19 20 21 22 23
799
FTUS41 KLWX 100520
TAFDCA
TAF
KDCA 100520Z 1006/1106 31009KT P6SM BKN050
     FM101400 28011G19KT P6SM BKN070
     FM102100 29013G22KT P6SM BKN040=

USA.gov is the U.S. government's official web portal to all federal, state and local government web resources and services.